sensor_id;sensor_type;location;lat;lon;timestamp;P1;P2;P0
84223;PMS5003;74353;51.208;0.304;2024-03-17T00:00:23;8;6;
84223;PMS5003;74353;51.208;0.304;2024-03-17T00:02:52;8;8;
84223;PMS5003;74353;51.208;0.304;2024-03-17T00:05:12;6;6;
84223;PMS5003;74353;51.208;0.304;2024-03-17T00:07:38;8;8;
84223;PMS5003;74353;51.208;0.304;2024-03-17T00:10:04;6;6;
84223;PMS5003;74353;51.208;0.304;2024-03-17T00:12:31;5;5;
84223;PMS5003;74353;51.208;0.304;2024-03-17T00:14:57;9;9;
84223;PMS5003;74353;51.208;0.304;2024-03-17T00:17:22;3;3;
84223;PMS5003;74353;51.208;0.304;2024-03-17T00:19:48;7;7;
84223;PMS5003;74353;51.208;0.304;2024-03-17T00:22:15;12;5;
84223;PMS5003;74353;51.208;0.304;2024-03-17T00:24:43;5;5;
84223;PMS5003;74353;51.208;0.304;2024-03-17T00:27:07;6;6;
84223;PMS5003;74353;51.208;0.304;2024-03-17T00:29:34;3;3;
84223;PMS5003;74353;51.208;0.304;2024-03-17T00:32:02;10;10;
84223;PMS5003;74353;51.208;0.304;2024-03-17T00:34:27;10;10;
84223;PMS5003;74353;51.208;0.304;2024-03-17T00:36:54;8;8;
84223;PMS5003;74353;51.208;0.304;2024-03-17T00:39:22;11;11;
84223;PMS5003;74353;51.208;0.304;2024-03-17T00:41:49;10;10;
84223;PMS5003;74353;51.208;0.304;2024-03-17T00:44:16;6;6;
84223;PMS5003;74353;51.208;0.304;2024-03-17T00:46:42;11;8;
84223;PMS5003;74353;51.208;0.304;2024-03-17T00:49:09;4;4;
84223;PMS5003;74353;51.208;0.304;2024-03-17T00:51:36;6;6;
84223;PMS5003;74353;51.208;0.304;2024-03-17T00:54:03;7;7;
84223;PMS5003;74353;51.208;0.304;2024-03-17T00:56:29;11;8;
84223;PMS5003;74353;51.208;0.304;2024-03-17T00:58:54;8;8;
84223;PMS5003;74353;51.208;0.304;2024-03-17T01:01:19;8;8;
84223;PMS5003;74353;51.208;0.304;2024-03-17T01:03:45;5;5;
84223;PMS5003;74353;51.208;0.304;2024-03-17T01:06:10;7;7;
84223;PMS5003;74353;51.208;0.304;2024-03-17T01:08:39;8;8;
84223;PMS5003;74353;51.208;0.304;2024-03-17T01:11:05;6;6;
84223;PMS5003;74353;51.208;0.304;2024-03-17T01:13:30;12;12;
84223;PMS5003;74353;51.208;0.304;2024-03-17T01:15:56;11;11;
84223;PMS5003;74353;51.208;0.304;2024-03-17T01:18:23;6;6;
84223;PMS5003;74353;51.208;0.304;2024-03-17T01:20:48;9;9;
84223;PMS5003;74353;51.208;0.304;2024-03-17T01:23:13;12;12;
84223;PMS5003;74353;51.208;0.304;2024-03-17T01:25:40;9;9;
84223;PMS5003;74353;51.208;0.304;2024-03-17T01:28:08;5;5;
84223;PMS5003;74353;51.208;0.304;2024-03-17T01:30:34;12;12;
84223;PMS5003;74353;51.208;0.304;2024-03-17T01:33:02;7;7;
84223;PMS5003;74353;51.208;0.304;2024-03-17T01:35:32;11;11;
84223;PMS5003;74353;51.208;0.304;2024-03-17T01:37:54;12;12;
84223;PMS5003;74353;51.208;0.304;2024-03-17T01:40:19;8;8;
84223;PMS5003;74353;51.208;0.304;2024-03-17T01:42:44;11;9;
84223;PMS5003;74353;51.208;0.304;2024-03-17T01:47:35;11;11;
84223;PMS5003;74353;51.208;0.304;2024-03-17T01:50:02;5;5;
84223;PMS5003;74353;51.208;0.304;2024-03-17T01:52:27;12;10;
84223;PMS5003;74353;51.208;0.304;2024-03-17T01:54:52;17;17;
84223;PMS5003;74353;51.208;0.304;2024-03-17T01:57:18;10;10;
84223;PMS5003;74353;51.208;0.304;2024-03-17T01:59:44;11;11;
84223;PMS5003;74353;51.208;0.304;2024-03-17T02:02:10;9;9;
84223;PMS5003;74353;51.208;0.304;2024-03-17T02:04:36;13;12;
84223;PMS5003;74353;51.208;0.304;2024-03-17T02:07:02;6;6;
84223;PMS5003;74353;51.208;0.304;2024-03-17T02:09:28;11;11;
84223;PMS5003;74353;51.208;0.304;2024-03-17T02:11:56;8;8;
84223;PMS5003;74353;51.208;0.304;2024-03-17T02:14:21;15;15;
84223;PMS5003;74353;51.208;0.304;2024-03-17T02:16:49;11;11;
84223;PMS5003;74353;51.208;0.304;2024-03-17T02:19:14;13;10;
84223;PMS5003;74353;51.208;0.304;2024-03-17T02:21:40;13;11;
84223;PMS5003;74353;51.208;0.304;2024-03-17T02:24:08;18;18;
84223;PMS5003;74353;51.208;0.304;2024-03-17T02:26:36;8;8;
84223;PMS5003;74353;51.208;0.304;2024-03-17T02:29:03;7;7;
84223;PMS5003;74353;51.208;0.304;2024-03-17T02:31:28;11;11;
84223;PMS5003;74353;51.208;0.304;2024-03-17T02:33:57;5;5;
84223;PMS5003;74353;51.208;0.304;2024-03-17T02:36:22;13;13;
84223;PMS5003;74353;51.208;0.304;2024-03-17T02:38:49;5;5;
84223;PMS5003;74353;51.208;0.304;2024-03-17T02:41:15;11;11;
84223;PMS5003;74353;51.208;0.304;2024-03-17T02:43:43;7;7;
84223;PMS5003;74353;51.208;0.304;2024-03-17T02:46:10;6;6;
84223;PMS5003;74353;51.208;0.304;2024-03-17T02:48:36;7;7;
84223;PMS5003;74353;51.208;0.304;2024-03-17T02:51:03;5;5;
84223;PMS5003;74353;51.208;0.304;2024-03-17T02:53:28;10;10;
84223;PMS5003;74353;51.208;0.304;2024-03-17T02:55:54;9;9;
84223;PMS5003;74353;51.208;0.304;2024-03-17T02:58:20;12;11;
84223;PMS5003;74353;51.208;0.304;2024-03-17T03:00:46;5;5;
84223;PMS5003;74353;51.208;0.304;2024-03-17T03:03:13;12;12;
84223;PMS5003;74353;51.208;0.304;2024-03-17T03:05:38;9;9;
84223;PMS5003;74353;51.208;0.304;2024-03-17T03:08:03;3;3;
84223;PMS5003;74353;51.208;0.304;2024-03-17T03:10:29;14;14;
84223;PMS5003;74353;51.208;0.304;2024-03-17T03:12:56;2;2;
84223;PMS5003;74353;51.208;0.304;2024-03-17T03:15:21;6;6;
84223;PMS5003;74353;51.208;0.304;2024-03-17T03:17:49;8;8;
84223;PMS5003;74353;51.208;0.304;2024-03-17T03:20:14;10;10;
84223;PMS5003;74353;51.208;0.304;2024-03-17T03:22:40;9;9;
84223;PMS5003;74353;51.208;0.304;2024-03-17T03:25:06;12;12;
84223;PMS5003;74353;51.208;0.304;2024-03-17T03:27:31;12;12;
84223;PMS5003;74353;51.208;0.304;2024-03-17T03:29:57;14;13;
84223;PMS5003;74353;51.208;0.304;2024-03-17T03:32:24;4;4;
84223;PMS5003;74353;51.208;0.304;2024-03-17T03:34:50;11;11;
84223;PMS5003;74353;51.208;0.304;2024-03-17T03:37:16;8;8;
84223;PMS5003;74353;51.208;0.304;2024-03-17T03:39:42;17;17;
84223;PMS5003;74353;51.208;0.304;2024-03-17T03:42:09;11;11;
84223;PMS5003;74353;51.208;0.304;2024-03-17T03:44:33;4;4;
84223;PMS5003;74353;51.208;0.304;2024-03-17T03:47:01;8;8;
84223;PMS5003;74353;51.208;0.304;2024-03-17T03:49:26;17;15;
84223;PMS5003;74353;51.208;0.304;2024-03-17T03:51:52;12;12;
84223;PMS5003;74353;51.208;0.304;2024-03-17T03:54:17;12;11;
84223;PMS5003;74353;51.208;0.304;2024-03-17T03:56:43;13;10;
84223;PMS5003;74353;51.208;0.304;2024-03-17T03:59:10;9;9;
84223;PMS5003;74353;51.208;0.304;2024-03-17T04:01:37;13;13;
84223;PMS5003;74353;51.208;0.304;2024-03-17T04:04:03;7;7;
84223;PMS5003;74353;51.208;0.304;2024-03-17T04:06:29;15;13;
84223;PMS5003;74353;51.208;0.304;2024-03-17T04:08:56;5;5;
84223;PMS5003;74353;51.208;0.304;2024-03-17T04:11:24;21;15;
84223;PMS5003;74353;51.208;0.304;2024-03-17T04:13:49;14;14;
84223;PMS5003;74353;51.208;0.304;2024-03-17T04:16:17;11;11;
84223;PMS5003;74353;51.208;0.304;2024-03-17T04:18:43;12;12;
84223;PMS5003;74353;51.208;0.304;2024-03-17T04:21:10;10;10;
84223;PMS5003;74353;51.208;0.304;2024-03-17T04:23:38;9;9;
84223;PMS5003;74353;51.208;0.304;2024-03-17T04:26:03;14;8;
84223;PMS5003;74353;51.208;0.304;2024-03-17T04:28:29;16;13;
84223;PMS5003;74353;51.208;0.304;2024-03-17T04:31:03;17;17;
84223;PMS5003;74353;51.208;0.304;2024-03-17T04:33:24;9;9;
84223;PMS5003;74353;51.208;0.304;2024-03-17T04:35:52;14;14;
84223;PMS5003;74353;51.208;0.304;2024-03-17T04:38:18;7;7;
84223;PMS5003;74353;51.208;0.304;2024-03-17T04:40:43;8;8;
84223;PMS5003;74353;51.208;0.304;2024-03-17T04:43:09;9;9;
84223;PMS5003;74353;51.208;0.304;2024-03-17T04:45:35;9;9;
84223;PMS5003;74353;51.208;0.304;2024-03-17T04:48:07;10;10;
84223;PMS5003;74353;51.208;0.304;2024-03-17T04:50:33;5;5;
84223;PMS5003;74353;51.208;0.304;2024-03-17T04:52:59;10;8;
84223;PMS5003;74353;51.208;0.304;2024-03-17T04:55:25;7;7;
84223;PMS5003;74353;51.208;0.304;2024-03-17T04:57:55;5;5;
84223;PMS5003;74353;51.208;0.304;2024-03-17T05:00:20;11;11;
84223;PMS5003;74353;51.208;0.304;2024-03-17T05:02:46;11;11;
84223;PMS5003;74353;51.208;0.304;2024-03-17T05:05:11;11;11;
84223;PMS5003;74353;51.208;0.304;2024-03-17T05:07:38;5;5;
84223;PMS5003;74353;51.208;0.304;2024-03-17T05:10:03;10;10;
84223;PMS5003;74353;51.208;0.304;2024-03-17T05:12:31;8;8;
84223;PMS5003;74353;51.208;0.304;2024-03-17T05:14:56;6;6;
84223;PMS5003;74353;51.208;0.304;2024-03-17T05:17:22;6;6;
84223;PMS5003;74353;51.208;0.304;2024-03-17T05:19:47;11;11;
84223;PMS5003;74353;51.208;0.304;2024-03-17T05:22:13;0;0;
84223;PMS5003;74353;51.208;0.304;2024-03-17T05:24:40;6;6;
84223;PMS5003;74353;51.208;0.304;2024-03-17T05:27:06;3;3;
84223;PMS5003;74353;51.208;0.304;2024-03-17T05:29:32;2;2;
84223;PMS5003;74353;51.208;0.304;2024-03-17T05:31:58;4;4;
84223;PMS5003;74353;51.208;0.304;2024-03-17T05:34:25;4;4;
84223;PMS5003;74353;51.208;0.304;2024-03-17T05:36:52;9;9;
84223;PMS5003;74353;51.208;0.304;2024-03-17T05:39:17;5;5;
84223;PMS5003;74353;51.208;0.304;2024-03-17T05:41:43;8;8;
84223;PMS5003;74353;51.208;0.304;2024-03-17T05:44:09;9;9;
84223;PMS5003;74353;51.208;0.304;2024-03-17T05:46:35;9;9;
84223;PMS5003;74353;51.208;0.304;2024-03-17T05:49:01;9;9;
84223;PMS5003;74353;51.208;0.304;2024-03-17T05:51:28;8;8;
84223;PMS5003;74353;51.208;0.304;2024-03-17T05:53:57;4;4;
84223;PMS5003;74353;51.208;0.304;2024-03-17T05:56:23;11;11;
84223;PMS5003;74353;51.208;0.304;2024-03-17T05:58:49;8;8;
84223;PMS5003;74353;51.208;0.304;2024-03-17T06:01:15;6;6;
84223;PMS5003;74353;51.208;0.304;2024-03-17T06:03:40;5;5;
84223;PMS5003;74353;51.208;0.304;2024-03-17T06:06:06;11;11;
84223;PMS5003;74353;51.208;0.304;2024-03-17T06:08:31;11;8;
84223;PMS5003;74353;51.208;0.304;2024-03-17T06:10:57;8;8;
84223;PMS5003;74353;51.208;0.304;2024-03-17T06:13:23;15;9;
84223;PMS5003;74353;51.208;0.304;2024-03-17T06:15:50;10;10;
84223;PMS5003;74353;51.208;0.304;2024-03-17T06:18:17;7;7;
84223;PMS5003;74353;51.208;0.304;2024-03-17T06:20:44;7;7;
84223;PMS5003;74353;51.208;0.304;2024-03-17T06:23:09;8;8;
84223;PMS5003;74353;51.208;0.304;2024-03-17T06:25:38;8;8;
84223;PMS5003;74353;51.208;0.304;2024-03-17T06:28:07;5;5;
84223;PMS5003;74353;51.208;0.304;2024-03-17T06:30:28;12;11;
84223;PMS5003;74353;51.208;0.304;2024-03-17T06:32:54;5;5;
84223;PMS5003;74353;51.208;0.304;2024-03-17T06:35:21;14;6;
84223;PMS5003;74353;51.208;0.304;2024-03-17T06:37:47;6;6;
84223;PMS5003;74353;51.208;0.304;2024-03-17T06:40:14;4;4;
84223;PMS5003;74353;51.208;0.304;2024-03-17T06:42:41;1;1;
84223;PMS5003;74353;51.208;0.304;2024-03-17T06:45:08;9;8;
84223;PMS5003;74353;51.208;0.304;2024-03-17T06:47:33;6;6;
84223;PMS5003;74353;51.208;0.304;2024-03-17T06:50:00;3;3;
84223;PMS5003;74353;51.208;0.304;2024-03-17T06:52:26;6;6;
84223;PMS5003;74353;51.208;0.304;2024-03-17T06:54:54;4;4;
84223;PMS5003;74353;51.208;0.304;2024-03-17T06:57:19;6;6;
84223;PMS5003;74353;51.208;0.304;2024-03-17T06:59:47;2;2;
84223;PMS5003;74353;51.208;0.304;2024-03-17T07:02:14;6;6;
84223;PMS5003;74353;51.208;0.304;2024-03-17T07:04:40;6;6;
84223;PMS5003;74353;51.208;0.304;2024-03-17T07:07:08;16;4;
84223;PMS5003;74353;51.208;0.304;2024-03-17T07:09:33;14;6;
84223;PMS5003;74353;51.208;0.304;2024-03-17T07:11:59;9;6;
84223;PMS5003;74353;51.208;0.304;2024-03-17T07:14:25;7;5;
84223;PMS5003;74353;51.208;0.304;2024-03-17T07:16:50;11;10;
84223;PMS5003;74353;51.208;0.304;2024-03-17T07:19:15;2;2;
84223;PMS5003;74353;51.208;0.304;2024-03-17T07:21:40;6;6;
84223;PMS5003;74353;51.208;0.304;2024-03-17T07:24:06;9;6;
84223;PMS5003;74353;51.208;0.304;2024-03-17T07:26:33;14;6;
84223;PMS5003;74353;51.208;0.304;2024-03-17T07:29:02;8;3;
84223;PMS5003;74353;51.208;0.304;2024-03-17T07:31:27;10;10;
84223;PMS5003;74353;51.208;0.304;2024-03-17T07:33:55;4;4;
84223;PMS5003;74353;51.208;0.304;2024-03-17T07:36:21;4;4;
84223;PMS5003;74353;51.208;0.304;2024-03-17T07:38:48;2;2;
84223;PMS5003;74353;51.208;0.304;2024-03-17T07:41:16;3;3;
84223;PMS5003;74353;51.208;0.304;2024-03-17T07:43:43;3;3;
84223;PMS5003;74353;51.208;0.304;2024-03-17T07:46:10;7;7;
84223;PMS5003;74353;51.208;0.304;2024-03-17T07:48:36;9;8;
84223;PMS5003;74353;51.208;0.304;2024-03-17T07:51:01;7;4;
84223;PMS5003;74353;51.208;0.304;2024-03-17T07:53:26;1;1;
84223;PMS5003;74353;51.208;0.304;2024-03-17T07:55:57;2;2;
84223;PMS5003;74353;51.208;0.304;2024-03-17T07:58:17;6;6;
84223;PMS5003;74353;51.208;0.304;2024-03-17T08:00:42;4;4;
84223;PMS5003;74353;51.208;0.304;2024-03-17T08:03:08;8;8;
84223;PMS5003;74353;51.208;0.304;2024-03-17T08:05:34;6;3;
84223;PMS5003;74353;51.208;0.304;2024-03-17T08:08:02;2;2;
84223;PMS5003;74353;51.208;0.304;2024-03-17T08:10:27;2;2;
84223;PMS5003;74353;51.208;0.304;2024-03-17T08:12:55;4;4;
84223;PMS5003;74353;51.208;0.304;2024-03-17T08:15:22;2;2;
84223;PMS5003;74353;51.208;0.304;2024-03-17T08:17:49;4;4;
84223;PMS5003;74353;51.208;0.304;2024-03-17T08:20:17;4;4;
84223;PMS5003;74353;51.208;0.304;2024-03-17T08:22:43;9;6;
84223;PMS5003;74353;51.208;0.304;2024-03-17T08:25:09;5;5;
84223;PMS5003;74353;51.208;0.304;2024-03-17T08:27:34;3;3;
84223;PMS5003;74353;51.208;0.304;2024-03-17T08:29:59;7;7;
84223;PMS5003;74353;51.208;0.304;2024-03-17T08:32:25;3;3;
84223;PMS5003;74353;51.208;0.304;2024-03-17T08:34:52;12;6;
84223;PMS5003;74353;51.208;0.304;2024-03-17T08:37:17;2;2;
84223;PMS5003;74353;51.208;0.304;2024-03-17T08:39:42;3;3;
84223;PMS5003;74353;51.208;0.304;2024-03-17T08:42:08;5;5;
84223;PMS5003;74353;51.208;0.304;2024-03-17T08:44:33;5;5;
84223;PMS5003;74353;51.208;0.304;2024-03-17T08:46:58;4;3;
84223;PMS5003;74353;51.208;0.304;2024-03-17T08:49:24;2;2;
84223;PMS5003;74353;51.208;0.304;2024-03-17T08:51:49;9;3;
84223;PMS5003;74353;51.208;0.304;2024-03-17T08:54:17;0;0;
84223;PMS5003;74353;51.208;0.304;2024-03-17T08:56:43;2;2;
84223;PMS5003;74353;51.208;0.304;2024-03-17T08:59:10;0;0;
84223;PMS5003;74353;51.208;0.304;2024-03-17T09:01:35;4;4;
84223;PMS5003;74353;51.208;0.304;2024-03-17T09:04:00;1;1;
84223;PMS5003;74353;51.208;0.304;2024-03-17T09:06:25;4;4;
84223;PMS5003;74353;51.208;0.304;2024-03-17T09:08:52;3;3;
84223;PMS5003;74353;51.208;0.304;2024-03-17T09:11:18;2;2;
84223;PMS5003;74353;51.208;0.304;2024-03-17T09:13:44;6;3;
84223;PMS5003;74353;51.208;0.304;2024-03-17T09:16:10;1;1;
84223;PMS5003;74353;51.208;0.304;2024-03-17T09:18:40;3;3;
84223;PMS5003;74353;51.208;0.304;2024-03-17T09:21:06;2;2;
84223;PMS5003;74353;51.208;0.304;2024-03-17T09:23:30;6;6;
84223;PMS5003;74353;51.208;0.304;2024-03-17T09:25:56;5;5;
84223;PMS5003;74353;51.208;0.304;2024-03-17T09:28:21;3;3;
84223;PMS5003;74353;51.208;0.304;2024-03-17T09:30:47;0;0;
84223;PMS5003;74353;51.208;0.304;2024-03-17T09:33:13;3;2;
84223;PMS5003;74353;51.208;0.304;2024-03-17T09:35:39;7;1;
84223;PMS5003;74353;51.208;0.304;2024-03-17T09:38:06;2;2;
84223;PMS5003;74353;51.208;0.304;2024-03-17T09:40:33;1;1;
84223;PMS5003;74353;51.208;0.304;2024-03-17T09:42:59;1;1;
84223;PMS5003;74353;51.208;0.304;2024-03-17T09:45:24;4;4;
84223;PMS5003;74353;51.208;0.304;2024-03-17T09:47:52;1;1;
84223;PMS5003;74353;51.208;0.304;2024-03-17T09:50:17;2;2;
84223;PMS5003;74353;51.208;0.304;2024-03-17T09:52:45;10;4;
84223;PMS5003;74353;51.208;0.304;2024-03-17T09:55:15;2;2;
84223;PMS5003;74353;51.208;0.304;2024-03-17T09:57:36;3;3;
84223;PMS5003;74353;51.208;0.304;2024-03-17T10:00:03;1;1;
84223;PMS5003;74353;51.208;0.304;2024-03-17T10:02:29;3;3;
84223;PMS5003;74353;51.208;0.304;2024-03-17T10:04:55;2;2;
84223;PMS5003;74353;51.208;0.304;2024-03-17T10:07:24;4;4;
84223;PMS5003;74353;51.208;0.304;2024-03-17T10:09:48;2;2;
84223;PMS5003;74353;51.208;0.304;2024-03-17T10:14:39;4;4;
84223;PMS5003;74353;51.208;0.304;2024-03-17T10:17:07;1;1;
84223;PMS5003;74353;51.208;0.304;2024-03-17T10:19:32;4;4;
84223;PMS5003;74353;51.208;0.304;2024-03-17T10:21:59;2;2;
84223;PMS5003;74353;51.208;0.304;2024-03-17T10:24:25;2;2;
84223;PMS5003;74353;51.208;0.304;2024-03-17T10:26:51;3;3;
84223;PMS5003;74353;51.208;0.304;2024-03-17T10:29:22;2;2;
84223;PMS5003;74353;51.208;0.304;2024-03-17T10:31:43;0;0;
84223;PMS5003;74353;51.208;0.304;2024-03-17T10:34:10;2;2;
84223;PMS5003;74353;51.208;0.304;2024-03-17T10:36:37;0;0;
84223;PMS5003;74353;51.208;0.304;2024-03-17T10:39:05;1;1;
84223;PMS5003;74353;51.208;0.304;2024-03-17T10:41:30;2;2;
84223;PMS5003;74353;51.208;0.304;2024-03-17T10:43:56;1;1;
84223;PMS5003;74353;51.208;0.304;2024-03-17T10:46:23;1;1;
84223;PMS5003;74353;51.208;0.304;2024-03-17T10:48:51;1;1;
84223;PMS5003;74353;51.208;0.304;2024-03-17T10:51:17;1;1;
84223;PMS5003;74353;51.208;0.304;2024-03-17T10:53:45;0;0;
84223;PMS5003;74353;51.208;0.304;2024-03-17T10:56:13;0;0;
84223;PMS5003;74353;51.208;0.304;2024-03-17T10:58:39;0;0;
84223;PMS5003;74353;51.208;0.304;2024-03-17T11:01:04;1;1;
84223;PMS5003;74353;51.208;0.304;2024-03-17T11:03:33;0;0;
84223;PMS5003;74353;51.208;0.304;2024-03-17T11:05:58;0;0;
84223;PMS5003;74353;51.208;0.304;2024-03-17T11:08:24;0;0;
84223;PMS5003;74353;51.208;0.304;2024-03-17T11:10:52;0;0;
84223;PMS5003;74353;51.208;0.304;2024-03-17T11:15:41;0;0;
84223;PMS5003;74353;51.208;0.304;2024-03-17T11:20:36;0;0;
84223;PMS5003;74353;51.208;0.304;2024-03-17T11:23:01;0;0;
84223;PMS5003;74353;51.208;0.304;2024-03-17T11:25:37;0;0;
84223;PMS5003;74353;51.208;0.304;2024-03-17T11:27:55;0;0;
84223;PMS5003;74353;51.208;0.304;2024-03-17T11:32:48;0;0;
84223;PMS5003;74353;51.208;0.304;2024-03-17T11:35:13;0;0;
84223;PMS5003;74353;51.208;0.304;2024-03-17T11:37:41;0;0;
84223;PMS5003;74353;51.208;0.304;2024-03-17T11:40:21;0;0;
84223;PMS5003;74353;51.208;0.304;2024-03-17T11:42:31;1;0;
84223;PMS5003;74353;51.208;0.304;2024-03-17T11:44:57;0;0;
84223;PMS5003;74353;51.208;0.304;2024-03-17T11:47:22;0;0;
84223;PMS5003;74353;51.208;0.304;2024-03-17T11:49:48;0;0;
84223;PMS5003;74353;51.208;0.304;2024-03-17T11:52:14;0;0;
84223;PMS5003;74353;51.208;0.304;2024-03-17T11:54:40;0;0;
84223;PMS5003;74353;51.208;0.304;2024-03-17T11:57:08;0;0;
84223;PMS5003;74353;51.208;0.304;2024-03-17T11:59:34;0;0;
84223;PMS5003;74353;51.208;0.304;2024-03-17T12:02:01;0;0;
84223;PMS5003;74353;51.208;0.304;2024-03-17T12:04:26;0;0;
84223;PMS5003;74353;51.208;0.304;2024-03-17T12:06:54;0;0;
84223;PMS5003;74353;51.208;0.304;2024-03-17T12:09:19;0;0;
84223;PMS5003;74353;51.208;0.304;2024-03-17T12:11:46;0;0;
84223;PMS5003;74353;51.208;0.304;2024-03-17T12:14:15;0;0;
84223;PMS5003;74353;51.208;0.304;2024-03-17T12:19:07;1;1;
84223;PMS5003;74353;51.208;0.304;2024-03-17T12:21:33;0;0;
84223;PMS5003;74353;51.208;0.304;2024-03-17T12:24:00;0;0;
84223;PMS5003;74353;51.208;0.304;2024-03-17T12:26:25;0;0;
84223;PMS5003;74353;51.208;0.304;2024-03-17T12:28:53;0;0;
84223;PMS5003;74353;51.208;0.304;2024-03-17T12:31:18;1;1;
84223;PMS5003;74353;51.208;0.304;2024-03-17T12:33:43;1;0;
84223;PMS5003;74353;51.208;0.304;2024-03-17T12:36:09;1;1;
84223;PMS5003;74353;51.208;0.304;2024-03-17T12:38:35;1;1;
84223;PMS5003;74353;51.208;0.304;2024-03-17T12:41:01;2;2;
84223;PMS5003;74353;51.208;0.304;2024-03-17T12:43:26;0;0;
84223;PMS5003;74353;51.208;0.304;2024-03-17T12:45:55;0;0;
84223;PMS5003;74353;51.208;0.304;2024-03-17T12:48:18;1;1;
84223;PMS5003;74353;51.208;0.304;2024-03-17T12:50:44;1;1;
84223;PMS5003;74353;51.208;0.304;2024-03-17T12:53:08;0;0;
84223;PMS5003;74353;51.208;0.304;2024-03-17T12:55:34;0;0;
84223;PMS5003;74353;51.208;0.304;2024-03-17T13:00:25;0;0;
84223;PMS5003;74353;51.208;0.304;2024-03-17T13:02:54;0;0;
84223;PMS5003;74353;51.208;0.304;2024-03-17T13:05:20;0;0;
84223;PMS5003;74353;51.208;0.304;2024-03-17T13:07:46;1;1;
84223;PMS5003;74353;51.208;0.304;2024-03-17T13:10:11;1;1;
84223;PMS5003;74353;51.208;0.304;2024-03-17T13:12:39;0;0;
84223;PMS5003;74353;51.208;0.304;2024-03-17T13:15:08;1;1;
84223;PMS5003;74353;51.208;0.304;2024-03-17T13:17:35;3;3;
84223;PMS5003;74353;51.208;0.304;2024-03-17T13:20:05;2;2;
84223;PMS5003;74353;51.208;0.304;2024-03-17T13:22:30;2;2;
84223;PMS5003;74353;51.208;0.304;2024-03-17T13:24:56;3;3;
84223;PMS5003;74353;51.208;0.304;2024-03-17T13:27:21;1;1;
84223;PMS5003;74353;51.208;0.304;2024-03-17T13:29:49;0;0;
84223;PMS5003;74353;51.208;0.304;2024-03-17T13:32:15;0;0;
84223;PMS5003;74353;51.208;0.304;2024-03-17T13:34:41;0;0;
84223;PMS5003;74353;51.208;0.304;2024-03-17T13:37:09;1;1;
84223;PMS5003;74353;51.208;0.304;2024-03-17T13:39:35;0;0;
84223;PMS5003;74353;51.208;0.304;2024-03-17T13:42:01;0;0;
84223;PMS5003;74353;51.208;0.304;2024-03-17T13:44:27;2;2;
84223;PMS5003;74353;51.208;0.304;2024-03-17T13:46:55;1;1;
84223;PMS5003;74353;51.208;0.304;2024-03-17T13:49:22;0;0;
84223;PMS5003;74353;51.208;0.304;2024-03-17T13:51:52;4;0;
84223;PMS5003;74353;51.208;0.304;2024-03-17T13:54:19;0;0;
84223;PMS5003;74353;51.208;0.304;2024-03-17T13:56:46;0;0;
84223;PMS5003;74353;51.208;0.304;2024-03-17T13:59:13;0;0;
84223;PMS5003;74353;51.208;0.304;2024-03-17T14:01:39;1;1;
84223;PMS5003;74353;51.208;0.304;2024-03-17T14:04:04;0;0;
84223;PMS5003;74353;51.208;0.304;2024-03-17T14:06:30;3;3;
84223;PMS5003;74353;51.208;0.304;2024-03-17T14:08:56;1;1;
84223;PMS5003;74353;51.208;0.304;2024-03-17T14:11:22;6;2;
84223;PMS5003;74353;51.208;0.304;2024-03-17T14:13:52;1;1;
84223;PMS5003;74353;51.208;0.304;2024-03-17T14:16:17;0;0;
84223;PMS5003;74353;51.208;0.304;2024-03-17T14:18:42;1;1;
84223;PMS5003;74353;51.208;0.304;2024-03-17T14:21:08;1;1;
84223;PMS5003;74353;51.208;0.304;2024-03-17T14:23:33;2;1;
84223;PMS5003;74353;51.208;0.304;2024-03-17T14:26:02;2;2;
84223;PMS5003;74353;51.208;0.304;2024-03-17T14:28:29;0;0;
84223;PMS5003;74353;51.208;0.304;2024-03-17T14:30:57;1;1;
84223;PMS5003;74353;51.208;0.304;2024-03-17T14:33:23;1;1;
84223;PMS5003;74353;51.208;0.304;2024-03-17T14:38:15;1;1;
84223;PMS5003;74353;51.208;0.304;2024-03-17T14:40:41;4;3;
84223;PMS5003;74353;51.208;0.304;2024-03-17T14:43:06;2;2;
84223;PMS5003;74353;51.208;0.304;2024-03-17T14:45:31;3;3;
84223;PMS5003;74353;51.208;0.304;2024-03-17T14:47:57;5;3;
84223;PMS5003;74353;51.208;0.304;2024-03-17T14:50:22;3;3;
84223;PMS5003;74353;51.208;0.304;2024-03-17T14:52:48;3;3;
84223;PMS5003;74353;51.208;0.304;2024-03-17T14:55:14;5;4;
84223;PMS5003;74353;51.208;0.304;2024-03-17T14:57:41;4;4;
84223;PMS5003;74353;51.208;0.304;2024-03-17T15:00:08;9;8;
84223;PMS5003;74353;51.208;0.304;2024-03-17T15:02:33;3;3;
84223;PMS5003;74353;51.208;0.304;2024-03-17T15:05:02;2;2;
84223;PMS5003;74353;51.208;0.304;2024-03-17T15:07:30;1;1;
84223;PMS5003;74353;51.208;0.304;2024-03-17T15:09:57;3;3;
84223;PMS5003;74353;51.208;0.304;2024-03-17T15:12:22;3;3;
84223;PMS5003;74353;51.208;0.304;2024-03-17T15:14:48;0;0;
84223;PMS5003;74353;51.208;0.304;2024-03-17T15:17:16;2;2;
84223;PMS5003;74353;51.208;0.304;2024-03-17T15:19:42;2;2;
84223;PMS5003;74353;51.208;0.304;2024-03-17T15:22:08;3;3;
84223;PMS5003;74353;51.208;0.304;2024-03-17T15:24:35;3;3;
84223;PMS5003;74353;51.208;0.304;2024-03-17T15:27:02;1;1;
84223;PMS5003;74353;51.208;0.304;2024-03-17T15:29:27;3;3;
84223;PMS5003;74353;51.208;0.304;2024-03-17T15:31:52;2;2;
84223;PMS5003;74353;51.208;0.304;2024-03-17T15:34:18;1;1;
84223;PMS5003;74353;51.208;0.304;2024-03-17T15:36:43;8;6;
84223;PMS5003;74353;51.208;0.304;2024-03-17T15:39:10;8;2;
84223;PMS5003;74353;51.208;0.304;2024-03-17T15:41:36;3;1;
84223;PMS5003;74353;51.208;0.304;2024-03-17T15:44:03;1;1;
84223;PMS5003;74353;51.208;0.304;2024-03-17T15:46:28;2;2;
84223;PMS5003;74353;51.208;0.304;2024-03-17T15:48:54;2;2;
84223;PMS5003;74353;51.208;0.304;2024-03-17T15:51:20;4;4;
84223;PMS5003;74353;51.208;0.304;2024-03-17T15:53:46;1;1;
84223;PMS5003;74353;51.208;0.304;2024-03-17T15:56:12;3;3;
84223;PMS5003;74353;51.208;0.304;2024-03-17T15:58:38;3;3;
84223;PMS5003;74353;51.208;0.304;2024-03-17T16:01:04;4;4;
84223;PMS5003;74353;51.208;0.304;2024-03-17T16:03:32;0;0;
84223;PMS5003;74353;51.208;0.304;2024-03-17T16:06:01;2;2;
84223;PMS5003;74353;51.208;0.304;2024-03-17T16:08:25;0;0;
84223;PMS5003;74353;51.208;0.304;2024-03-17T16:10:51;1;1;
84223;PMS5003;74353;51.208;0.304;2024-03-17T16:13:16;2;2;
84223;PMS5003;74353;51.208;0.304;2024-03-17T16:15:43;2;2;
84223;PMS5003;74353;51.208;0.304;2024-03-17T16:18:09;1;1;
84223;PMS5003;74353;51.208;0.304;2024-03-17T16:20:49;2;2;
84223;PMS5003;74353;51.208;0.304;2024-03-17T16:23:02;1;1;
84223;PMS5003;74353;51.208;0.304;2024-03-17T16:25:28;3;3;
84223;PMS5003;74353;51.208;0.304;2024-03-17T16:27:55;3;1;
84223;PMS5003;74353;51.208;0.304;2024-03-17T16:30:21;0;0;
84223;PMS5003;74353;51.208;0.304;2024-03-17T16:32:47;0;0;
84223;PMS5003;74353;51.208;0.304;2024-03-17T16:35:13;1;1;
84223;PMS5003;74353;51.208;0.304;2024-03-17T16:37:38;1;1;
84223;PMS5003;74353;51.208;0.304;2024-03-17T16:40:04;4;3;
84223;PMS5003;74353;51.208;0.304;2024-03-17T16:42:30;10;6;
84223;PMS5003;74353;51.208;0.304;2024-03-17T16:44:59;2;2;
84223;PMS5003;74353;51.208;0.304;2024-03-17T16:47:28;2;2;
84223;PMS5003;74353;51.208;0.304;2024-03-17T16:49:49;0;0;
84223;PMS5003;74353;51.208;0.304;2024-03-17T16:52:18;3;3;
84223;PMS5003;74353;51.208;0.304;2024-03-17T16:54:44;3;3;
84223;PMS5003;74353;51.208;0.304;2024-03-17T16:57:12;0;0;